createdAt,value
2017-12-27T00:01:26.168Z,966.28
2017-12-27T00:02:26.177Z,966.22
2017-12-27T00:04:20.161Z,966.17
2017-12-27T00:05:19.571Z,966.15
2017-12-27T00:07:14.870Z,966.09
2017-12-27T00:08:14.912Z,966.06
2017-12-27T00:10:33.831Z,966.02
2017-12-27T00:11:33.744Z,966.02
2017-12-27T00:13:38.682Z,965.98
2017-12-27T00:14:38.647Z,965.95
2017-12-27T00:16:34.541Z,965.90
2017-12-27T00:17:34.466Z,965.92
2017-12-27T00:19:32.368Z,965.92
2017-12-27T00:20:32.380Z,965.90
2017-12-27T00:22:45.201Z,965.89
2017-12-27T00:23:45.237Z,965.84
2017-12-27T00:25:39.575Z,965.82
2017-12-27T00:26:39.713Z,965.77
2017-12-27T00:27:39.575Z,965.74
2017-12-27T00:28:39.569Z,965.79
2017-12-27T00:29:39.529Z,965.72
2017-12-27T00:30:39.516Z,965.72
2017-12-27T00:31:39.499Z,965.68
2017-12-27T00:32:39.490Z,965.68
2017-12-27T00:33:39.494Z,965.64
2017-12-27T00:34:39.480Z,965.63
2017-12-27T00:35:39.476Z,965.61
2017-12-27T00:36:39.467Z,965.57
2017-12-27T00:37:39.455Z,965.57
2017-12-27T00:38:39.448Z,965.55
2017-12-27T00:39:39.440Z,965.52
2017-12-27T00:40:39.454Z,965.50
2017-12-27T00:41:39.441Z,965.50
2017-12-27T00:42:39.419Z,965.48
2017-12-27T00:43:39.420Z,965.48
2017-12-27T00:44:39.423Z,965.45
2017-12-27T00:45:39.397Z,965.46
2017-12-27T00:46:39.394Z,965.44
2017-12-27T00:47:39.379Z,965.44
2017-12-27T00:48:39.401Z,965.43
2017-12-27T00:49:39.371Z,965.38
2017-12-27T00:50:39.366Z,965.32
2017-12-27T00:51:39.360Z,965.34
2017-12-27T00:52:39.347Z,965.26
2017-12-27T00:53:39.337Z,965.23
2017-12-27T00:54:39.335Z,965.27
2017-12-27T00:55:39.337Z,965.23
2017-12-27T00:56:39.321Z,965.20
2017-12-27T00:57:39.312Z,965.25
2017-12-27T00:58:39.307Z,965.25
2017-12-27T00:59:39.298Z,965.20
2017-12-27T01:00:39.289Z,965.20
2017-12-27T01:01:39.281Z,965.20
2017-12-27T01:02:39.273Z,965.22
2017-12-27T01:03:39.274Z,965.24
2017-12-27T01:04:39.285Z,965.18
2017-12-27T01:05:39.257Z,965.19
2017-12-27T01:06:39.249Z,965.16
2017-12-27T01:07:39.235Z,965.20
2017-12-27T01:08:39.238Z,965.15
2017-12-27T01:09:39.224Z,965.16
2017-12-27T01:10:39.224Z,965.15
2017-12-27T01:11:39.218Z,965.18
2017-12-27T01:12:39.208Z,965.12
2017-12-27T01:13:39.190Z,965.16
2017-12-27T01:14:39.242Z,965.15
2017-12-27T01:15:39.190Z,965.11
2017-12-27T01:16:39.196Z,965.09
2017-12-27T01:17:39.166Z,965.08
2017-12-27T01:18:39.170Z,965.07
2017-12-27T01:19:39.152Z,965.06
2017-12-27T01:20:39.148Z,965.02
2017-12-27T01:21:39.135Z,965.01
2017-12-27T01:22:39.137Z,965.01
2017-12-27T01:23:39.161Z,964.98
2017-12-27T01:24:39.138Z,964.98
2017-12-27T01:25:39.125Z,965.00
2017-12-27T01:26:39.101Z,965.02
2017-12-27T01:27:39.099Z,964.97
2017-12-27T01:28:39.093Z,964.94
2017-12-27T01:29:39.086Z,964.91
2017-12-27T01:30:39.072Z,964.90
2017-12-27T01:31:39.098Z,964.85
2017-12-27T01:32:39.077Z,964.85
2017-12-27T01:33:39.049Z,964.85
2017-12-27T01:34:39.045Z,964.82
2017-12-27T01:35:39.037Z,964.84
2017-12-27T01:36:39.022Z,964.75
2017-12-27T01:37:39.021Z,964.78
2017-12-27T01:38:39.023Z,964.75
2017-12-27T01:39:39.014Z,964.74
2017-12-27T01:40:39.025Z,964.76
2017-12-27T01:41:38.988Z,964.79
2017-12-27T01:42:38.983Z,964.74
2017-12-27T01:43:38.976Z,964.80
2017-12-27T01:44:38.976Z,964.79
2017-12-27T01:45:38.964Z,964.79
2017-12-27T01:46:38.956Z,964.77
2017-12-27T01:47:38.945Z,964.79
2017-12-27T01:48:38.962Z,964.77
2017-12-27T01:49:38.977Z,964.74
2017-12-27T01:50:38.926Z,964.76
2017-12-27T01:51:38.916Z,964.74
2017-12-27T01:52:38.920Z,964.69
2017-12-27T01:53:38.918Z,964.68
2017-12-27T01:54:38.899Z,964.70
2017-12-27T01:55:38.892Z,964.72
2017-12-27T01:56:38.905Z,964.66
2017-12-27T01:57:38.876Z,964.60
2017-12-27T01:58:38.868Z,964.52
2017-12-27T01:59:38.857Z,964.52
2017-12-27T02:00:38.858Z,964.57
2017-12-27T02:01:38.846Z,964.51
2017-12-27T02:02:38.846Z,964.44
2017-12-27T02:03:38.830Z,964.44
2017-12-27T02:04:38.835Z,964.39
2017-12-27T02:05:38.812Z,964.37
2017-12-27T02:06:38.816Z,964.28
2017-12-27T02:07:38.801Z,964.26
2017-12-27T02:08:38.790Z,964.27
2017-12-27T02:09:38.790Z,964.22
2017-12-27T02:10:38.802Z,964.25
2017-12-27T02:11:38.770Z,964.21
2017-12-27T02:12:38.759Z,964.20
2017-12-27T02:13:38.756Z,964.18
2017-12-27T02:14:38.747Z,964.16
2017-12-27T02:15:38.751Z,964.17
2017-12-27T02:16:38.735Z,964.12
2017-12-27T02:17:38.725Z,964.12
2017-12-27T02:18:38.728Z,964.04
2017-12-27T02:19:38.741Z,964.03
2017-12-27T02:20:38.707Z,964.02
2017-12-27T02:21:38.693Z,963.98
2017-12-27T02:22:38.688Z,963.96
2017-12-27T02:23:38.698Z,963.95
2017-12-27T02:24:38.673Z,963.90
2017-12-27T02:25:38.671Z,963.91
2017-12-27T02:26:38.662Z,963.86
2017-12-27T02:27:38.659Z,963.82
2017-12-27T02:28:38.652Z,963.79
2017-12-27T02:29:38.638Z,963.71
2017-12-27T02:30:38.633Z,963.69
2017-12-27T02:31:38.638Z,963.63
2017-12-27T02:32:38.616Z,963.59
2017-12-27T02:33:38.612Z,963.60
2017-12-27T02:34:38.606Z,963.58
2017-12-27T02:35:38.599Z,963.54
2017-12-27T02:36:38.590Z,963.56
2017-12-27T02:37:38.585Z,963.51
2017-12-27T02:38:38.576Z,963.50
2017-12-27T02:39:38.585Z,963.50
2017-12-27T02:40:38.564Z,963.45
2017-12-27T02:41:38.565Z,963.38
2017-12-27T02:42:38.547Z,963.40
2017-12-27T02:43:38.541Z,963.36
2017-12-27T02:44:38.530Z,963.33
2017-12-27T02:45:38.529Z,963.30
2017-12-27T02:46:38.523Z,963.24
2017-12-27T02:47:38.508Z,963.20
2017-12-27T02:48:38.507Z,963.18
2017-12-27T02:49:38.496Z,963.13
2017-12-27T02:50:38.492Z,963.09
2017-12-27T02:51:38.485Z,963.04
2017-12-27T02:52:38.480Z,963.04
2017-12-27T02:53:38.474Z,963.02
2017-12-27T02:54:38.466Z,962.98
2017-12-27T02:55:38.457Z,962.94
2017-12-27T02:56:38.449Z,962.89
2017-12-27T02:57:38.436Z,962.84
2017-12-27T02:58:38.431Z,962.79
2017-12-27T02:59:38.431Z,962.77
2017-12-27T03:00:38.445Z,962.77
2017-12-27T03:01:38.418Z,962.68
2017-12-27T03:02:38.410Z,962.70
2017-12-27T03:03:38.391Z,962.66
2017-12-27T03:04:38.414Z,962.65
2017-12-27T03:05:38.380Z,962.63
2017-12-27T03:06:38.371Z,962.65
2017-12-27T03:07:38.372Z,962.65
2017-12-27T03:08:38.359Z,962.58
2017-12-27T03:09:38.353Z,962.59
2017-12-27T03:10:38.406Z,962.58
2017-12-27T03:11:38.336Z,962.54
2017-12-27T03:12:38.341Z,962.53
2017-12-27T03:13:38.331Z,962.52
2017-12-27T03:14:38.318Z,962.49
2017-12-27T03:15:38.309Z,962.49
2017-12-27T03:16:38.335Z,962.50
2017-12-27T03:17:38.297Z,962.48
2017-12-27T03:18:38.300Z,962.39
2017-12-27T03:19:38.278Z,962.37
2017-12-27T03:20:38.288Z,962.40
2017-12-27T03:21:38.265Z,962.32
2017-12-27T03:22:38.272Z,962.31
2017-12-27T03:23:38.253Z,962.33
2017-12-27T03:24:38.245Z,962.26
2017-12-27T03:25:38.241Z,962.29
2017-12-27T03:26:38.232Z,962.25
2017-12-27T03:27:38.259Z,962.24
2017-12-27T03:28:38.218Z,962.20
2017-12-27T03:29:38.213Z,962.20
2017-12-27T03:30:38.206Z,962.21
2017-12-27T03:31:38.194Z,962.17
2017-12-27T03:32:38.196Z,962.18
2017-12-27T03:33:38.187Z,962.10
2017-12-27T03:34:38.182Z,962.08
2017-12-27T03:35:38.189Z,962.06
2017-12-27T03:36:38.179Z,962.03
2017-12-27T03:37:38.161Z,962.03
2017-12-27T03:38:38.146Z,961.98
2017-12-27T03:39:38.136Z,962.02
2017-12-27T03:40:38.132Z,962.02
2017-12-27T03:41:38.134Z,962.01
2017-12-27T03:42:38.118Z,962.00
2017-12-27T03:43:38.109Z,961.98
2017-12-27T03:44:38.099Z,961.95
2017-12-27T03:45:38.097Z,961.92
2017-12-27T03:46:38.087Z,961.84
2017-12-27T03:47:38.085Z,961.83
2017-12-27T03:48:38.106Z,961.83
2017-12-27T03:49:38.084Z,961.79
2017-12-27T03:50:38.060Z,961.78
2017-12-27T03:51:38.053Z,961.77
2017-12-27T03:52:38.053Z,961.73
2017-12-27T03:53:38.035Z,961.70
2017-12-27T03:54:38.031Z,961.62
2017-12-27T03:55:38.022Z,961.61
2017-12-27T03:56:38.045Z,961.59
2017-12-27T03:57:38.025Z,961.56
2017-12-27T03:58:38.032Z,961.61
2017-12-27T03:59:37.993Z,961.56
2017-12-27T04:00:37.991Z,961.48
2017-12-27T04:01:37.980Z,961.46
2017-12-27T04:02:37.983Z,961.46
2017-12-27T04:03:37.967Z,961.42
2017-12-27T04:04:37.969Z,961.41
2017-12-27T04:05:37.951Z,961.40
2017-12-27T04:06:37.949Z,961.35
2017-12-27T04:07:37.934Z,961.34
2017-12-27T04:08:37.934Z,961.27
2017-12-27T04:09:37.927Z,961.22
2017-12-27T04:10:37.949Z,961.21
2017-12-27T04:11:37.910Z,961.18
2017-12-27T04:12:37.908Z,961.17
2017-12-27T04:13:37.895Z,961.15
2017-12-27T04:14:37.890Z,961.13
2017-12-27T04:15:37.879Z,961.05
2017-12-27T04:16:37.880Z,961.01
2017-12-27T04:17:37.883Z,961.00
2017-12-27T04:18:37.864Z,960.98
2017-12-27T04:19:37.857Z,960.95
2017-12-27T04:20:37.852Z,960.96
2017-12-27T04:21:37.867Z,960.94
2017-12-27T04:22:37.840Z,960.95
2017-12-27T04:23:37.840Z,960.89
2017-12-27T04:24:37.825Z,960.87
2017-12-27T04:25:37.820Z,960.93
2017-12-27T04:26:37.840Z,960.91
2017-12-27T04:27:37.808Z,960.88
2017-12-27T04:28:37.797Z,960.87
2017-12-27T04:29:37.789Z,960.86
2017-12-27T04:30:37.780Z,960.80
2017-12-27T04:31:37.773Z,960.73
2017-12-27T04:32:37.766Z,960.73
2017-12-27T04:33:37.758Z,960.72
2017-12-27T04:34:37.753Z,960.70
2017-12-27T04:35:37.752Z,960.70
2017-12-27T04:36:37.746Z,960.68
2017-12-27T04:37:37.736Z,960.66
2017-12-27T04:38:37.742Z,960.62
2017-12-27T04:39:37.720Z,960.62
2017-12-27T04:40:37.712Z,960.60
2017-12-27T04:41:37.734Z,960.59
2017-12-27T04:42:37.700Z,960.56
2017-12-27T04:43:37.691Z,960.52
2017-12-27T04:44:37.693Z,960.55
2017-12-27T04:45:37.699Z,960.51
2017-12-27T04:46:37.693Z,960.48
2017-12-27T04:47:37.665Z,960.47
2017-12-27T04:48:37.658Z,960.46
2017-12-27T04:49:37.662Z,960.50
2017-12-27T04:50:37.657Z,960.48
2017-12-27T04:51:37.672Z,960.36
2017-12-27T04:52:37.649Z,960.40
2017-12-27T04:53:37.636Z,960.40
2017-12-27T04:54:37.623Z,960.36
2017-12-27T04:55:37.613Z,960.36
2017-12-27T04:56:37.610Z,960.37
2017-12-27T04:57:37.601Z,960.32
2017-12-27T04:58:37.601Z,960.34
2017-12-27T04:59:37.596Z,960.29
2017-12-27T05:00:37.589Z,960.27
2017-12-27T05:01:37.588Z,960.24
2017-12-27T05:02:37.587Z,960.19
2017-12-27T05:03:37.567Z,960.14
2017-12-27T05:04:37.568Z,960.16
2017-12-27T05:05:37.553Z,960.14
2017-12-27T05:06:37.544Z,960.10
2017-12-27T05:07:37.540Z,960.04
2017-12-27T05:08:37.535Z,960.06
2017-12-27T05:09:37.557Z,960.10
2017-12-27T05:10:37.528Z,960.07
2017-12-27T05:11:37.512Z,960.09
2017-12-27T05:12:37.513Z,960.10
2017-12-27T05:13:37.501Z,960.06
2017-12-27T05:14:37.525Z,960.04
2017-12-27T05:15:37.492Z,960.04
2017-12-27T05:16:37.490Z,960.00
2017-12-27T05:17:37.482Z,960.01
2017-12-27T05:18:37.471Z,960.02
2017-12-27T05:19:37.464Z,959.98
2017-12-27T05:20:37.459Z,959.93
2017-12-27T05:21:37.454Z,959.94
2017-12-27T05:22:37.449Z,959.81
2017-12-27T05:23:37.441Z,959.81
2017-12-27T05:24:37.444Z,959.86
2017-12-27T05:25:37.431Z,959.86
2017-12-27T05:26:37.430Z,959.89
2017-12-27T05:27:37.414Z,959.81
2017-12-27T05:28:37.419Z,959.86
2017-12-27T05:29:37.419Z,959.77
2017-12-27T05:30:37.398Z,959.76
2017-12-27T05:31:37.391Z,959.80
2017-12-27T05:32:37.409Z,959.74
2017-12-27T05:33:37.385Z,959.76
2017-12-27T05:34:37.372Z,959.75
2017-12-27T05:35:37.372Z,959.76
2017-12-27T05:36:37.360Z,959.70
2017-12-27T05:37:37.355Z,959.66
2017-12-27T05:38:37.356Z,959.67
2017-12-27T05:39:37.344Z,959.64
2017-12-27T05:40:37.336Z,959.63
2017-12-27T05:41:37.337Z,959.58
2017-12-27T05:42:37.327Z,959.64
2017-12-27T05:43:37.317Z,959.64
2017-12-27T05:44:37.310Z,959.69
2017-12-27T05:45:37.315Z,959.67
2017-12-27T05:46:37.301Z,959.68
2017-12-27T05:47:37.295Z,959.70
2017-12-27T05:48:37.284Z,959.73
2017-12-27T05:49:37.281Z,959.70
2017-12-27T05:50:37.300Z,959.63
2017-12-27T05:51:37.271Z,959.74
2017-12-27T05:52:37.267Z,959.70
2017-12-27T05:53:37.263Z,959.70
2017-12-27T05:54:37.251Z,959.69
2017-12-27T05:55:37.247Z,959.72
2017-12-27T05:56:37.272Z,959.72
2017-12-27T05:57:37.234Z,959.68
2017-12-27T05:58:37.262Z,959.72
2017-12-27T05:59:37.221Z,959.67
2017-12-27T06:00:37.222Z,959.66
2017-12-27T06:01:37.216Z,959.65
2017-12-27T06:02:37.244Z,959.61
2017-12-27T06:03:37.210Z,959.66
2017-12-27T06:04:37.197Z,959.59
2017-12-27T06:05:37.188Z,959.67
2017-12-27T06:06:37.176Z,959.65
2017-12-27T06:07:37.186Z,959.64
2017-12-27T06:08:37.178Z,959.67
2017-12-27T06:09:37.163Z,959.63
2017-12-27T06:10:37.164Z,959.62
2017-12-27T06:11:37.150Z,959.63
2017-12-27T06:12:37.163Z,959.66
2017-12-27T06:13:37.137Z,959.68
2017-12-27T06:14:37.141Z,959.68
2017-12-27T06:15:37.127Z,959.62
2017-12-27T06:16:37.150Z,959.54
2017-12-27T06:17:37.116Z,959.49
2017-12-27T06:18:37.124Z,959.46
2017-12-27T06:19:37.126Z,959.50
2017-12-27T06:20:37.097Z,959.49
2017-12-27T06:21:37.095Z,959.44
2017-12-27T06:22:37.087Z,959.39
2017-12-27T06:23:37.123Z,959.42
2017-12-27T06:24:37.097Z,959.39
2017-12-27T06:25:37.072Z,959.38
2017-12-27T06:26:37.062Z,959.36
2017-12-27T06:27:37.061Z,959.35
2017-12-27T06:28:37.047Z,959.22
2017-12-27T06:29:37.077Z,959.18
2017-12-27T06:30:37.034Z,959.19
2017-12-27T06:31:37.059Z,959.19
2017-12-27T06:32:37.023Z,959.12
2017-12-27T06:33:37.020Z,959.09
2017-12-27T06:34:37.030Z,959.05
2017-12-27T06:35:37.025Z,959.05
2017-12-27T06:36:36.996Z,959.00
2017-12-27T06:37:36.990Z,959.03
2017-12-27T06:38:36.992Z,958.99
2017-12-27T06:39:37.000Z,958.99
2017-12-27T06:40:36.981Z,958.93
2017-12-27T06:41:36.972Z,958.98
2017-12-27T06:42:36.967Z,958.92
2017-12-27T06:43:36.962Z,958.90
2017-12-27T06:44:36.980Z,958.90
2017-12-27T06:45:36.949Z,958.89
2017-12-27T06:46:36.938Z,958.88
2017-12-27T06:47:36.947Z,958.83
2017-12-27T06:48:36.929Z,958.81
2017-12-27T06:49:36.925Z,958.80
2017-12-27T06:50:36.914Z,958.80
2017-12-27T06:51:36.912Z,958.80
2017-12-27T06:52:36.915Z,958.80
2017-12-27T06:53:36.895Z,958.81
2017-12-27T06:54:36.889Z,958.78
2017-12-27T06:55:36.911Z,958.78
2017-12-27T06:56:36.888Z,958.78
2017-12-27T06:57:36.872Z,958.74
2017-12-27T06:58:36.874Z,958.79
2017-12-27T06:59:36.866Z,958.79
2017-12-27T07:00:36.857Z,958.73
2017-12-27T07:01:36.848Z,958.70
2017-12-27T07:02:36.846Z,958.64
2017-12-27T07:03:36.839Z,958.61
2017-12-27T07:04:36.853Z,958.58
2017-12-27T07:05:36.855Z,958.53
2017-12-27T07:06:36.814Z,958.48
2017-12-27T07:07:36.809Z,958.52
2017-12-27T07:08:36.818Z,958.48
2017-12-27T07:09:36.815Z,958.43
2017-12-27T07:10:36.797Z,958.45
2017-12-27T07:11:36.793Z,958.39
2017-12-27T07:12:36.812Z,958.44
2017-12-27T07:13:36.793Z,958.31
2017-12-27T07:14:36.774Z,958.39
2017-12-27T07:15:36.772Z,958.36
2017-12-27T07:16:36.792Z,958.39
2017-12-27T07:17:36.757Z,958.37
2017-12-27T07:18:36.754Z,958.31
2017-12-27T07:19:36.795Z,958.28
2017-12-27T07:20:36.736Z,958.23
2017-12-27T07:21:36.741Z,958.23
2017-12-27T07:22:36.728Z,958.14
2017-12-27T07:23:36.717Z,958.10
2017-12-27T07:24:36.716Z,958.10
2017-12-27T07:25:36.760Z,958.03
2017-12-27T07:26:36.705Z,958.08
2017-12-27T07:27:36.702Z,958.05
2017-12-27T07:28:36.701Z,958.07
2017-12-27T07:29:36.701Z,958.01
2017-12-27T07:30:36.683Z,958.07
2017-12-27T07:31:36.678Z,957.98
2017-12-27T07:32:36.676Z,958.03
2017-12-27T07:33:36.670Z,957.98
2017-12-27T07:34:36.656Z,957.99
2017-12-27T07:35:36.655Z,957.94
2017-12-27T07:36:36.656Z,957.88
2017-12-27T07:37:36.642Z,957.87
2017-12-27T07:38:36.629Z,957.84
2017-12-27T07:39:36.657Z,957.82
2017-12-27T07:40:36.630Z,957.89
2017-12-27T07:41:36.615Z,957.87
2017-12-27T07:42:36.627Z,957.87
2017-12-27T07:43:36.607Z,957.86
2017-12-27T07:44:36.599Z,957.90
2017-12-27T07:45:36.600Z,957.84
2017-12-27T07:46:36.581Z,957.78
2017-12-27T07:47:36.587Z,957.80
2017-12-27T07:48:36.578Z,957.75
2017-12-27T07:49:36.571Z,957.78
2017-12-27T07:50:36.565Z,957.74
2017-12-27T07:51:36.592Z,957.72
2017-12-27T07:52:36.554Z,957.74
2017-12-27T07:53:36.561Z,957.72
2017-12-27T07:54:36.539Z,957.75
2017-12-27T07:55:36.543Z,957.81
2017-12-27T07:56:36.527Z,957.79
2017-12-27T07:57:36.558Z,957.81
2017-12-27T07:58:36.511Z,957.76
2017-12-27T07:59:36.567Z,957.79
2017-12-27T08:00:36.510Z,957.72
2017-12-27T08:01:36.530Z,957.80
2017-12-27T08:02:36.542Z,957.77
2017-12-27T08:03:36.488Z,957.76
2017-12-27T08:04:36.477Z,957.73
2017-12-27T08:05:36.476Z,957.78
2017-12-27T08:06:36.501Z,957.74
2017-12-27T08:07:36.465Z,957.75
2017-12-27T08:08:36.452Z,957.66
2017-12-27T08:09:36.485Z,957.69
2017-12-27T08:10:36.463Z,957.69
2017-12-27T08:11:36.450Z,957.71
2017-12-27T08:12:36.453Z,957.68
2017-12-27T08:13:36.454Z,957.75
2017-12-27T08:14:36.420Z,957.74
2017-12-27T08:15:36.412Z,957.63
2017-12-27T08:16:36.413Z,957.77
2017-12-27T08:17:36.402Z,957.66
2017-12-27T08:18:37.180Z,957.71
2017-12-27T08:19:36.389Z,957.69
2017-12-27T08:20:36.391Z,957.73
2017-12-27T08:21:36.384Z,957.60
2017-12-27T08:22:36.381Z,957.62
2017-12-27T08:23:36.372Z,957.61
2017-12-27T08:24:36.370Z,957.66
2017-12-27T08:25:36.356Z,957.62
2017-12-27T08:26:36.389Z,957.65
2017-12-27T08:27:36.364Z,957.66
2017-12-27T08:28:36.348Z,957.54
2017-12-27T08:29:36.339Z,957.56
2017-12-27T08:30:36.330Z,957.56
2017-12-27T08:31:36.328Z,957.56
2017-12-27T08:32:36.351Z,957.47
2017-12-27T08:33:36.317Z,957.39
2017-12-27T08:34:36.309Z,957.36
2017-12-27T08:35:36.339Z,957.40
2017-12-27T08:36:36.301Z,957.34
2017-12-27T08:37:36.297Z,957.36
2017-12-27T08:38:36.289Z,957.32
2017-12-27T08:39:36.286Z,957.27
2017-12-27T08:40:36.283Z,957.24
2017-12-27T08:41:36.283Z,957.19
2017-12-27T08:42:36.269Z,957.21
2017-12-27T08:43:36.263Z,957.10
2017-12-27T08:44:36.258Z,957.11
2017-12-27T08:45:36.291Z,957.02
2017-12-27T08:46:36.245Z,957.03
2017-12-27T08:47:36.242Z,957.00
2017-12-27T08:48:36.238Z,956.99
2017-12-27T08:49:36.233Z,957.01
2017-12-27T08:50:36.253Z,956.99
2017-12-27T08:51:36.215Z,957.05
2017-12-27T08:52:36.218Z,957.03
2017-12-27T08:53:36.209Z,957.10
2017-12-27T08:54:36.222Z,957.06
2017-12-27T08:55:36.199Z,957.05
2017-12-27T08:56:36.197Z,957.05
2017-12-27T08:57:36.190Z,957.07
2017-12-27T08:58:36.188Z,957.10
2017-12-27T08:59:36.175Z,957.06
2017-12-27T09:00:36.194Z,957.08
2017-12-27T09:01:36.171Z,957.09
2017-12-27T09:02:36.162Z,957.02
2017-12-27T09:03:36.162Z,957.05
2017-12-27T09:04:36.153Z,957.13
2017-12-27T09:05:36.150Z,957.11
2017-12-27T09:06:36.144Z,957.07
2017-12-27T09:07:36.139Z,957.05
2017-12-27T09:08:36.140Z,957.01
2017-12-27T09:09:36.132Z,957.05
2017-12-27T09:10:36.122Z,957.02
2017-12-27T09:11:36.131Z,956.98
2017-12-27T09:12:36.116Z,957.00
2017-12-27T09:13:36.114Z,956.98
2017-12-27T09:14:36.114Z,956.94
2017-12-27T09:15:36.097Z,956.98
2017-12-27T09:16:36.108Z,956.93
2017-12-27T09:17:36.100Z,956.91
2017-12-27T09:18:36.126Z,956.97
2017-12-27T09:19:36.118Z,957.01
2017-12-27T09:20:36.078Z,956.97
2017-12-27T09:21:36.068Z,956.89
2017-12-27T09:22:36.067Z,956.97
2017-12-27T09:23:36.077Z,956.99
2017-12-27T09:24:36.079Z,956.94
2017-12-27T09:25:36.055Z,956.92
2017-12-27T09:26:36.051Z,956.88
2017-12-27T09:27:36.078Z,956.93
2017-12-27T09:28:36.038Z,956.90
2017-12-27T09:29:36.048Z,956.86
2017-12-27T09:30:36.082Z,956.86
2017-12-27T09:31:36.054Z,956.85
2017-12-27T09:32:36.052Z,956.81
2017-12-27T09:33:36.014Z,956.84
2017-12-27T09:34:36.010Z,956.81
2017-12-27T09:35:36.046Z,956.78
2017-12-27T09:36:36.006Z,956.77
2017-12-27T09:37:36.002Z,956.75
2017-12-27T09:38:37.164Z,956.75
2017-12-27T09:39:36.076Z,956.79
2017-12-27T09:40:36.221Z,956.69
2017-12-27T09:41:35.971Z,956.77
2017-12-27T09:42:35.991Z,956.73
2017-12-27T09:43:35.964Z,956.70
2017-12-27T09:44:35.959Z,956.70
2017-12-27T09:45:35.964Z,956.77
2017-12-27T09:46:36.035Z,956.74
2017-12-27T09:47:36.029Z,956.72
2017-12-27T09:48:37.291Z,956.70
2017-12-27T09:49:36.647Z,956.62
2017-12-27T09:50:35.967Z,956.65
2017-12-27T09:51:35.990Z,956.61
2017-12-27T09:52:35.977Z,956.62
2017-12-27T09:53:36.907Z,956.59
2017-12-27T09:54:35.926Z,956.53
2017-12-27T09:55:35.943Z,956.50
2017-12-27T09:56:36.657Z,956.46
2017-12-27T09:57:36.164Z,956.50
2017-12-27T09:58:35.939Z,956.38
2017-12-27T09:59:35.894Z,956.36
2017-12-27T10:00:35.890Z,956.36
2017-12-27T10:01:35.889Z,956.34
2017-12-27T10:02:35.883Z,956.26
2017-12-27T10:03:35.896Z,956.19
2017-12-27T10:04:35.875Z,956.20
2017-12-27T10:05:35.868Z,956.16
2017-12-27T10:06:35.859Z,956.16
2017-12-27T10:07:35.871Z,956.09
2017-12-27T10:08:37.037Z,956.14
2017-12-27T10:09:35.875Z,956.07
2017-12-27T10:10:35.839Z,956.08
2017-12-27T10:11:35.839Z,956.06
2017-12-27T10:12:36.316Z,956.00
2017-12-27T10:13:36.293Z,956.05
2017-12-27T10:14:35.827Z,955.98
2017-12-27T10:15:35.814Z,955.93
2017-12-27T10:16:35.823Z,955.90
2017-12-27T10:17:35.815Z,955.92
2017-12-27T10:18:35.814Z,955.84
2017-12-27T10:19:35.796Z,955.89
2017-12-27T10:20:35.797Z,955.82
2017-12-27T10:21:36.651Z,955.78
2017-12-27T10:22:35.796Z,955.72
2017-12-27T10:23:35.800Z,955.71
2017-12-27T10:24:35.786Z,955.65
2017-12-27T10:25:35.777Z,955.67
2017-12-27T10:26:35.770Z,955.62
2017-12-27T10:27:35.770Z,955.59
2017-12-27T10:28:35.763Z,955.53
2017-12-27T10:29:35.936Z,955.51
2017-12-27T10:30:35.957Z,955.49
2017-12-27T10:31:36.659Z,955.54
2017-12-27T10:32:36.100Z,955.50
2017-12-27T10:33:35.749Z,955.52
2017-12-27T10:34:35.792Z,955.42
2017-12-27T10:35:35.741Z,955.44
2017-12-27T10:36:37.217Z,955.38
2017-12-27T10:37:35.729Z,955.28
2017-12-27T10:38:35.750Z,955.22
2017-12-27T10:39:35.715Z,955.17
2017-12-27T10:40:36.547Z,955.22
2017-12-27T10:41:43.158Z,955.23
2017-12-27T10:42:35.699Z,955.22
2017-12-27T10:43:36.213Z,955.16
2017-12-27T10:44:37.074Z,955.13
2017-12-27T10:45:35.694Z,955.09
2017-12-27T10:46:35.686Z,955.04
2017-12-27T10:47:35.679Z,955.00
2017-12-27T10:48:36.686Z,955.00
2017-12-27T10:49:36.124Z,955.00
2017-12-27T10:50:35.695Z,954.95
2017-12-27T10:51:35.698Z,954.96
2017-12-27T10:52:35.666Z,955.04
2017-12-27T10:53:35.715Z,954.96
2017-12-27T10:54:35.654Z,954.98
2017-12-27T10:55:35.658Z,954.97
2017-12-27T10:56:36.672Z,954.94
2017-12-27T10:57:35.645Z,954.86
2017-12-27T10:58:35.642Z,954.84
2017-12-27T10:59:35.637Z,954.79
2017-12-27T11:00:35.632Z,954.70
2017-12-27T11:01:35.622Z,954.69
2017-12-27T11:02:36.784Z,954.72
2017-12-27T11:03:35.659Z,954.67
2017-12-27T11:04:35.612Z,954.66
2017-12-27T11:05:35.608Z,954.67
2017-12-27T11:06:35.602Z,954.65
2017-12-27T11:07:35.636Z,954.60
2017-12-27T11:08:35.636Z,954.60
2017-12-27T11:09:36.248Z,954.59
2017-12-27T11:10:35.595Z,954.60
2017-12-27T11:11:35.614Z,954.56
2017-12-27T11:12:35.615Z,954.53
2017-12-27T11:13:35.576Z,954.54
2017-12-27T11:14:35.571Z,954.52
2017-12-27T11:15:36.095Z,954.52
2017-12-27T11:16:35.563Z,954.50
2017-12-27T11:17:35.589Z,954.45
2017-12-27T11:18:35.572Z,954.42
2017-12-27T11:19:35.571Z,954.40
2017-12-27T11:20:35.554Z,954.39
2017-12-27T11:21:35.556Z,954.40
2017-12-27T11:22:35.545Z,954.35
2017-12-27T11:23:35.543Z,954.30
2017-12-27T11:24:35.533Z,954.27
2017-12-27T11:25:35.536Z,954.31
2017-12-27T11:26:35.597Z,954.24
2017-12-27T11:27:35.534Z,954.24
2017-12-27T11:28:35.548Z,954.22
2017-12-27T11:29:35.519Z,954.13
2017-12-27T11:30:35.517Z,954.18
2017-12-27T11:31:35.503Z,954.20
2017-12-27T11:32:35.509Z,954.16
2017-12-27T11:33:36.248Z,954.17
2017-12-27T11:34:35.992Z,954.15
2017-12-27T11:35:35.486Z,954.17
2017-12-27T11:36:35.518Z,954.19
2017-12-27T11:37:35.628Z,954.22
2017-12-27T11:38:35.479Z,954.21
2017-12-27T11:39:35.497Z,954.18
2017-12-27T11:40:35.526Z,954.18
2017-12-27T11:41:37.168Z,954.13
2017-12-27T11:42:37.238Z,954.10
2017-12-27T11:43:35.457Z,954.08
2017-12-27T11:44:35.444Z,954.07
2017-12-27T11:45:35.487Z,954.05
2017-12-27T11:46:35.440Z,954.03
2017-12-27T11:47:35.505Z,954.03
2017-12-27T11:48:35.433Z,954.08
2017-12-27T11:49:35.451Z,954.08
2017-12-27T11:50:35.444Z,954.06
2017-12-27T11:51:35.413Z,954.02
2017-12-27T11:52:35.417Z,954.05
2017-12-27T11:53:35.408Z,954.06
2017-12-27T11:54:36.230Z,954.00
2017-12-27T11:55:35.400Z,954.02
2017-12-27T11:56:35.391Z,953.95
2017-12-27T11:57:35.680Z,953.97
2017-12-27T11:58:35.386Z,953.93
2017-12-27T11:59:35.381Z,953.91
2017-12-27T12:00:35.416Z,953.91
2017-12-27T12:01:35.377Z,953.90
2017-12-27T12:02:35.376Z,953.95
2017-12-27T12:03:35.397Z,953.89
2017-12-27T12:04:35.366Z,953.86
2017-12-27T12:05:35.360Z,953.83
2017-12-27T12:06:35.357Z,953.83
2017-12-27T12:07:36.545Z,953.85
2017-12-27T12:08:35.340Z,953.86
2017-12-27T12:09:35.340Z,953.75
2017-12-27T12:10:35.352Z,953.80
2017-12-27T12:11:35.675Z,953.82
2017-12-27T12:12:35.330Z,953.80
2017-12-27T12:13:35.327Z,953.86
2017-12-27T12:14:35.376Z,953.82
2017-12-27T12:15:35.322Z,953.80
2017-12-27T12:16:35.330Z,953.87
2017-12-27T12:17:35.316Z,953.77
2017-12-27T12:18:35.302Z,953.75
2017-12-27T12:19:35.303Z,953.79
2017-12-27T12:20:35.299Z,953.74
2017-12-27T12:21:35.295Z,953.76
2017-12-27T12:22:35.293Z,953.76
2017-12-27T12:23:35.283Z,953.76
2017-12-27T12:24:35.279Z,953.69
2017-12-27T12:25:36.228Z,953.65
2017-12-27T12:26:35.272Z,953.60
2017-12-27T12:27:35.288Z,953.59
2017-12-27T12:28:36.760Z,953.53
2017-12-27T12:29:35.288Z,953.55
2017-12-27T12:30:35.255Z,953.50
2017-12-27T12:31:35.248Z,953.49
2017-12-27T12:32:35.269Z,953.43
2017-12-27T12:33:35.265Z,953.41
2017-12-27T12:34:35.264Z,953.40
2017-12-27T12:35:35.238Z,953.42
2017-12-27T12:36:35.232Z,953.34
2017-12-27T12:37:35.225Z,953.32